createdAt,value
2017-11-23T00:09:27.032Z,0.90
2017-11-23T00:11:56.054Z,0.90
2017-11-23T00:14:25.049Z,0.90
2017-11-23T00:16:53.206Z,0.80
2017-11-23T00:19:21.359Z,0.80
2017-11-23T00:21:49.509Z,0.70
2017-11-23T00:24:17.661Z,0.70
2017-11-23T00:26:45.829Z,0.70
2017-11-23T00:29:13.996Z,0.70
2017-11-23T00:31:42.169Z,0.60
2017-11-23T00:34:10.330Z,0.60
2017-11-23T00:36:38.480Z,0.70
2017-11-23T00:39:07.603Z,0.70
2017-11-23T00:41:35.778Z,0.70
2017-11-23T00:44:03.934Z,0.70
2017-11-23T00:46:32.094Z,0.70
2017-11-23T00:49:00.261Z,0.70
2017-11-23T00:51:29.000Z,0.70
2017-11-23T00:54:03.051Z,0.60
2017-11-23T00:56:31.206Z,0.60
2017-11-23T00:59:00.103Z,0.50
2017-11-23T01:01:28.267Z,0.50
2017-11-23T01:03:57.289Z,0.60
2017-11-23T01:06:25.452Z,0.50
2017-11-23T01:08:53.649Z,0.50
2017-11-23T01:11:21.806Z,0.60
2017-11-23T01:13:51.448Z,0.50
2017-11-23T01:16:20.371Z,0.50
2017-11-23T01:18:48.536Z,0.60
2017-11-23T01:21:16.690Z,0.50
2017-11-23T01:23:44.924Z,0.50
2017-11-23T01:26:13.097Z,0.50
2017-11-23T01:28:41.258Z,0.50
2017-11-23T01:31:09.646Z,0.40
2017-11-23T01:33:37.841Z,0.40
2017-11-23T01:36:05.987Z,0.40
2017-11-23T01:38:34.916Z,0.50
2017-11-23T01:41:03.934Z,0.40
2017-11-23T01:43:37.998Z,0.50
2017-11-23T01:46:06.197Z,0.50
2017-11-23T01:48:34.372Z,0.40
2017-11-23T01:51:02.522Z,0.40
2017-11-23T01:53:30.810Z,0.40
2017-11-23T01:55:58.971Z,0.30
2017-11-23T01:58:27.126Z,0.30
2017-11-23T02:00:56.080Z,0.30
2017-11-23T02:03:24.342Z,0.30
2017-11-23T02:05:52.540Z,0.30
2017-11-23T02:08:20.675Z,0.30
2017-11-23T02:10:49.353Z,0.30
2017-11-23T02:13:21.286Z,0.30
2017-11-23T02:15:49.439Z,0.30
2017-11-23T02:18:19.709Z,0.30
2017-11-23T02:20:47.886Z,0.20
2017-11-23T02:23:20.175Z,0.20
2017-11-23T02:25:48.334Z,0.20
2017-11-23T02:28:17.530Z,0.20
2017-11-23T02:30:45.683Z,0.20
2017-11-23T02:33:14.700Z,0.40
2017-11-23T02:35:42.867Z,0.40
2017-11-23T02:38:11.259Z,0.50
2017-11-23T02:40:39.430Z,0.60
2017-11-23T02:43:08.688Z,0.60
2017-11-23T02:45:36.853Z,0.60
2017-11-23T02:48:06.026Z,0.60
2017-11-23T02:50:34.183Z,0.70
2017-11-23T02:53:02.414Z,0.90
2017-11-23T02:55:30.584Z,0.90
2017-11-23T02:57:59.681Z,0.90
2017-11-23T03:00:27.830Z,1.00
2017-11-23T03:02:56.052Z,1.10
2017-11-23T03:05:24.200Z,1.30
2017-11-23T03:07:52.350Z,1.40
2017-11-23T03:10:20.517Z,1.50
2017-11-23T03:12:48.768Z,1.60
2017-11-23T03:15:16.916Z,1.70
2017-11-23T03:17:45.933Z,2.10
2017-11-23T03:20:14.087Z,2.10
2017-11-23T03:22:43.071Z,2.40
2017-11-23T03:25:11.249Z,2.40
2017-11-23T03:27:41.910Z,2.50
2017-11-23T03:30:10.057Z,2.60
2017-11-23T03:32:39.083Z,2.70
2017-11-23T03:35:07.245Z,2.60
2017-11-23T03:37:35.454Z,2.70
2017-11-23T03:40:03.606Z,2.70
2017-11-23T03:42:31.781Z,2.60
2017-11-23T03:45:00.728Z,2.60
2017-11-23T03:47:28.946Z,2.60
2017-11-23T03:49:57.109Z,2.60
2017-11-23T03:52:26.536Z,2.40
2017-11-23T03:54:54.804Z,2.40
2017-11-23T03:57:23.032Z,2.30
2017-11-23T03:59:51.195Z,2.20
2017-11-23T04:02:20.269Z,2.10
2017-11-23T04:04:49.298Z,2.20
2017-11-23T04:07:17.466Z,2.20
2017-11-23T04:09:45.623Z,2.10
2017-11-23T04:12:14.903Z,2.10
2017-11-23T04:14:43.055Z,2.00
2017-11-23T04:17:11.700Z,2.00
2017-11-23T04:19:39.877Z,1.90
2017-11-23T04:22:09.103Z,1.90
2017-11-23T04:24:37.248Z,1.80
2017-11-23T04:27:05.449Z,1.90
2017-11-23T04:29:33.600Z,1.80
2017-11-23T04:32:01.793Z,1.70
2017-11-23T04:34:30.048Z,1.80
2017-11-23T04:36:58.203Z,1.80
2017-11-23T04:39:26.365Z,1.90
2017-11-23T04:41:54.533Z,2.00
2017-11-23T04:44:22.675Z,2.00
2017-11-23T04:46:50.819Z,1.90
2017-11-23T04:49:18.960Z,2.00
2017-11-23T04:51:47.144Z,1.90
2017-11-23T04:54:15.273Z,1.90
2017-11-23T04:56:44.069Z,2.00
2017-11-23T04:59:12.206Z,2.10
2017-11-23T05:01:40.356Z,2.30
2017-11-23T05:04:08.511Z,2.30
2017-11-23T05:06:36.657Z,2.30
2017-11-23T05:09:04.835Z,2.40
2017-11-23T05:11:33.006Z,2.40
2017-11-23T05:14:01.194Z,2.60
2017-11-23T05:16:31.122Z,2.90
2017-11-23T05:18:59.323Z,2.80
2017-11-23T05:21:28.363Z,2.70
2017-11-23T05:23:56.642Z,2.70
2017-11-23T05:26:24.790Z,2.70
2017-11-23T05:28:52.991Z,2.80
2017-11-23T05:31:21.152Z,2.80
2017-11-23T05:33:49.327Z,2.80
2017-11-23T05:36:17.471Z,2.90
2017-11-23T05:38:45.629Z,2.90
2017-11-23T05:41:13.810Z,2.70
2017-11-23T05:43:42.019Z,2.70
2017-11-23T05:46:10.171Z,2.50
2017-11-23T05:48:39.457Z,2.40
2017-11-23T05:51:08.464Z,2.30
2017-11-23T05:53:36.621Z,2.40
2017-11-23T05:56:05.598Z,2.30
2017-11-23T05:58:33.815Z,2.20
2017-11-23T06:01:02.755Z,2.00
2017-11-23T06:03:30.991Z,2.00
2017-11-23T06:05:59.963Z,2.00
2017-11-23T06:08:28.130Z,2.10
2017-11-23T06:10:58.042Z,2.00
2017-11-23T06:13:26.262Z,1.90
2017-11-23T06:15:54.410Z,1.80
2017-11-23T06:18:23.582Z,1.70
2017-11-23T06:20:52.527Z,1.60
2017-11-23T06:23:24.126Z,1.60
2017-11-23T06:25:53.060Z,1.60
2017-11-23T06:28:21.220Z,1.60
2017-11-23T06:30:50.268Z,1.60
2017-11-23T06:33:20.483Z,1.70
2017-11-23T06:35:49.320Z,1.60
2017-11-23T06:38:17.492Z,1.70
2017-11-23T06:40:45.668Z,1.60
2017-11-23T06:43:14.854Z,1.60
2017-11-23T06:45:44.775Z,1.60
2017-11-23T06:48:12.956Z,1.60
2017-11-23T06:50:41.143Z,1.60
2017-11-23T06:53:10.083Z,1.60
2017-11-23T06:55:38.286Z,1.60
2017-11-23T06:58:06.445Z,1.50
2017-11-23T07:00:35.407Z,1.50
2017-11-23T07:03:04.709Z,1.50
2017-11-23T07:05:32.883Z,1.50
2017-11-23T07:08:01.044Z,1.50
2017-11-23T07:10:30.134Z,1.50
2017-11-23T07:13:01.890Z,1.60
2017-11-23T07:15:30.050Z,1.70
2017-11-23T07:18:00.155Z,1.70
2017-11-23T07:20:28.314Z,1.70
2017-11-23T07:22:56.499Z,1.80
2017-11-23T07:25:25.520Z,1.90
2017-11-23T07:27:53.693Z,1.90
2017-11-23T07:30:23.166Z,1.90
2017-11-23T07:32:51.455Z,2.00
2017-11-23T07:35:20.393Z,2.20
2017-11-23T07:37:48.565Z,2.20
2017-11-23T07:40:16.746Z,2.30
2017-11-23T07:42:46.424Z,2.40
2017-11-23T07:45:15.440Z,2.50
2017-11-23T07:47:43.619Z,2.60
2017-11-23T07:50:12.312Z,2.70
2017-11-23T07:52:46.560Z,3.00
2017-11-23T07:55:20.884Z,3.30
2017-11-23T07:57:49.053Z,3.80
2017-11-23T08:00:17.908Z,4.10
2017-11-23T08:02:49.332Z,4.40
2017-11-23T08:05:19.258Z,4.60
2017-11-23T08:07:47.436Z,4.90
2017-11-23T08:10:15.608Z,5.20
2017-11-23T08:12:47.989Z,5.50
2017-11-23T08:15:17.073Z,5.70
2017-11-23T08:17:45.247Z,5.90
2017-11-23T08:20:13.420Z,6.10
2017-11-23T08:22:41.700Z,6.40
2017-11-23T08:25:10.103Z,6.70
2017-11-23T08:27:38.249Z,6.90
2017-11-23T08:30:06.459Z,7.00
2017-11-23T08:32:35.673Z,7.20
2017-11-23T08:35:04.046Z,7.30
2017-11-23T08:37:33.093Z,7.60
2017-11-23T08:40:01.258Z,7.80
2017-11-23T08:42:29.546Z,7.80
2017-11-23T08:44:57.729Z,8.00
2017-11-23T08:47:26.667Z,8.40
2017-11-23T08:49:54.815Z,8.40
2017-11-23T08:52:23.070Z,8.50
2017-11-23T08:54:55.383Z,8.60
2017-11-23T08:57:23.576Z,8.60
2017-11-23T08:59:52.748Z,8.70
2017-11-23T09:02:22.216Z,8.80
2017-11-23T09:04:51.137Z,8.90
2017-11-23T09:07:19.299Z,9.00
2017-11-23T09:09:48.093Z,9.20
2017-11-23T09:12:17.146Z,9.40
2017-11-23T09:14:45.347Z,9.50
2017-11-23T09:17:14.800Z,9.50
2017-11-23T09:19:43.253Z,9.60
2017-11-23T09:22:11.455Z,9.70
2017-11-23T09:24:39.639Z,9.80
2017-11-23T09:27:07.813Z,9.90
2017-11-23T09:29:36.756Z,10.00
2017-11-23T09:32:10.446Z,10.00
2017-11-23T09:34:38.669Z,10.10
2017-11-23T09:37:07.046Z,10.10
2017-11-23T09:39:35.292Z,10.20
2017-11-23T09:42:12.438Z,10.20
2017-11-23T09:44:40.591Z,10.20
2017-11-23T09:47:08.904Z,10.30
2017-11-23T09:49:37.078Z,10.30
2017-11-23T09:52:05.243Z,10.40
2017-11-23T09:54:34.199Z,10.40
2017-11-23T09:57:03.092Z,10.40
2017-11-23T09:59:31.476Z,10.40
2017-11-23T10:01:59.890Z,10.80
2017-11-23T10:04:28.053Z,10.50
2017-11-23T10:06:57.109Z,10.60
2017-11-23T10:09:25.290Z,10.70
2017-11-23T10:11:53.585Z,10.80
2017-11-23T10:14:28.230Z,10.90
2017-11-23T10:16:57.258Z,10.90
2017-11-23T10:19:26.175Z,10.90
2017-11-23T10:21:54.338Z,11.00
2017-11-23T10:24:22.805Z,11.00
2017-11-23T10:26:52.082Z,11.20
2017-11-23T10:29:21.164Z,11.30
2017-11-23T10:31:49.318Z,11.40
2017-11-23T10:34:17.524Z,11.60
2017-11-23T10:36:47.510Z,11.80
2017-11-23T10:39:16.434Z,12.20
2017-11-23T10:41:45.395Z,12.20
2017-11-23T10:44:14.407Z,12.70
2017-11-23T10:46:42.661Z,12.70
2017-11-23T10:49:10.819Z,13.00
2017-11-23T10:51:38.990Z,13.00
2017-11-23T10:54:07.166Z,13.00
2017-11-23T10:56:35.330Z,13.00
2017-11-23T10:59:03.503Z,13.00
2017-11-23T11:01:31.682Z,13.00
2017-11-23T11:04:00.548Z,13.00
2017-11-23T11:06:28.714Z,12.90
2017-11-23T11:08:56.875Z,12.90
2017-11-23T11:11:25.056Z,12.90
2017-11-23T11:13:54.369Z,12.90
2017-11-23T11:16:23.193Z,12.90
2017-11-23T11:18:52.168Z,12.80
2017-11-23T11:21:21.298Z,12.60
2017-11-23T11:23:50.691Z,12.50
2017-11-23T11:26:18.841Z,12.50
2017-11-23T11:28:47.012Z,12.50
2017-11-23T11:31:15.198Z,12.50
2017-11-23T11:33:43.437Z,12.40
2017-11-23T11:36:11.600Z,12.50
2017-11-23T11:38:39.841Z,12.60
2017-11-23T11:41:09.456Z,12.70
2017-11-23T11:43:38.763Z,12.70
2017-11-23T11:46:07.809Z,12.70
2017-11-23T11:48:36.365Z,12.80
2017-11-23T11:51:04.874Z,12.90
2017-11-23T11:53:37.211Z,13.00
2017-11-23T11:56:05.858Z,13.20
2017-11-23T11:58:34.106Z,13.40
2017-11-23T12:01:02.571Z,13.60
2017-11-23T12:03:31.722Z,13.90
2017-11-23T12:06:00.699Z,14.00
2017-11-23T12:08:30.083Z,14.20
2017-11-23T12:10:58.251Z,14.50
2017-11-23T12:13:28.540Z,14.70
2017-11-23T12:16:09.407Z,14.80
2017-11-23T12:18:49.762Z,14.90
2017-11-23T12:21:25.726Z,15.00
2017-11-23T12:24:05.862Z,15.10
2017-11-23T12:26:34.035Z,15.10
2017-11-23T12:29:14.933Z,15.10
2017-11-23T12:31:43.115Z,15.10
2017-11-23T12:34:11.272Z,15.20
2017-11-23T12:36:39.507Z,15.30
2017-11-23T12:39:08.734Z,15.40
2017-11-23T12:41:36.905Z,15.30
2017-11-23T12:44:05.080Z,15.20
2017-11-23T12:46:34.010Z,15.20
2017-11-23T12:49:02.249Z,15.10
2017-11-23T12:51:31.257Z,15.10
2017-11-23T12:53:59.448Z,15.10
2017-11-23T12:56:29.345Z,15.10
2017-11-23T13:01:34.710Z,14.90
2017-11-23T13:04:02.964Z,14.80
2017-11-23T13:06:32.496Z,14.80
2017-11-23T13:09:01.768Z,14.70
2017-11-23T13:11:33.830Z,14.70
2017-11-23T13:14:09.235Z,14.70
2017-11-23T13:16:42.470Z,14.70
2017-11-23T13:19:11.273Z,14.70
2017-11-23T13:21:40.412Z,14.70
2017-11-23T13:24:09.384Z,14.70
2017-11-23T13:26:37.543Z,14.80
2017-11-23T13:29:06.610Z,14.90
2017-11-23T13:31:35.551Z,14.90
2017-11-23T13:34:04.466Z,14.90
2017-11-23T13:36:32.619Z,15.00
2017-11-23T13:39:00.769Z,15.10
2017-11-23T13:41:28.950Z,15.10
2017-11-23T13:43:57.118Z,15.00
2017-11-23T13:46:25.333Z,15.10
2017-11-23T13:48:53.591Z,15.10
2017-11-23T13:51:21.757Z,15.20
2017-11-23T13:53:58.017Z,15.20
2017-11-23T13:56:26.980Z,15.20
2017-11-23T13:58:57.142Z,15.20
2017-11-23T14:01:25.295Z,15.20
2017-11-23T14:03:54.455Z,15.30
2017-11-23T14:06:22.633Z,15.50
2017-11-23T14:08:51.738Z,15.50
2017-11-23T14:11:20.703Z,15.40
2017-11-23T14:13:52.727Z,15.40
2017-11-23T14:16:20.907Z,15.30
2017-11-23T14:18:49.084Z,15.20
2017-11-23T14:21:17.316Z,15.30
2017-11-23T14:23:45.603Z,15.10
2017-11-23T14:26:13.999Z,15.00
2017-11-23T14:28:42.443Z,14.90
2017-11-23T14:31:10.790Z,14.90
2017-11-23T14:33:42.258Z,15.00
2017-11-23T14:36:11.323Z,15.00
2017-11-23T14:38:39.488Z,14.90
2017-11-23T14:41:07.883Z,14.90
2017-11-23T14:43:36.129Z,14.70
2017-11-23T14:46:04.299Z,14.80
2017-11-23T14:48:32.454Z,14.80
2017-11-23T14:51:01.369Z,14.80
2017-11-23T14:53:31.489Z,14.80
2017-11-23T14:55:59.653Z,14.80
2017-11-23T14:58:28.559Z,14.80
2017-11-23T15:00:56.719Z,14.80
2017-11-23T15:03:29.627Z,14.70
2017-11-23T15:06:01.522Z,14.70
2017-11-23T15:08:29.674Z,14.70
2017-11-23T15:11:00.883Z,14.60
2017-11-23T15:13:33.677Z,14.40
2017-11-23T15:16:01.856Z,14.40
2017-11-23T15:18:33.290Z,14.30
2017-11-23T15:21:01.454Z,14.20
2017-11-23T15:23:29.649Z,14.00
2017-11-23T15:25:57.801Z,13.90
2017-11-23T15:28:26.727Z,13.60
2017-11-23T15:30:54.894Z,13.60
2017-11-23T15:33:26.459Z,13.40
2017-11-23T15:35:54.699Z,13.30
2017-11-23T15:38:22.855Z,13.10
2017-11-23T15:40:51.006Z,13.00
2017-11-23T15:43:22.423Z,13.00
2017-11-23T15:45:50.619Z,12.90
2017-11-23T15:48:19.473Z,12.70
2017-11-23T15:50:47.643Z,12.60
2017-11-23T15:53:15.907Z,12.40
2017-11-23T15:55:44.090Z,12.20
2017-11-23T15:58:13.072Z,12.10
2017-11-23T16:00:41.236Z,12.00
2017-11-23T16:03:09.433Z,11.90
2017-11-23T16:05:37.591Z,11.90
2017-11-23T16:08:06.533Z,11.60
2017-11-23T16:10:34.732Z,11.60
2017-11-23T16:13:02.959Z,11.50
2017-11-23T16:15:31.164Z,11.40
2017-11-23T16:17:59.375Z,11.20
2017-11-23T16:20:27.554Z,11.10
2017-11-23T16:22:55.918Z,10.90
2017-11-23T16:25:24.058Z,10.60
2017-11-23T16:27:52.243Z,10.50
2017-11-23T16:30:20.404Z,10.40
2017-11-23T16:32:55.653Z,10.30
2017-11-23T16:35:23.810Z,10.20
2017-11-23T16:37:57.041Z,10.10
2017-11-23T16:43:36.545Z,9.80
2017-11-23T16:46:24.636Z,9.70
2017-11-23T16:49:04.613Z,9.40
2017-11-23T16:51:49.647Z,9.40
2017-11-23T16:54:23.419Z,9.30
2017-11-23T16:56:57.148Z,9.20
2017-11-23T16:59:30.928Z,9.00
2017-11-23T17:02:02.079Z,8.80
2017-11-23T17:04:35.917Z,8.70
2017-11-23T17:07:09.655Z,8.60
2017-11-23T17:09:43.409Z,8.60
2017-11-23T17:12:17.152Z,8.60
2017-11-23T17:14:51.004Z,8.50
2017-11-23T17:17:35.512Z,8.40
2017-11-23T17:20:03.733Z,8.30
2017-11-23T17:22:31.912Z,8.40
2017-11-23T17:25:00.069Z,8.20
2017-11-23T17:27:29.034Z,8.10
2017-11-23T17:29:57.205Z,8.00
2017-11-23T17:32:29.268Z,8.00
2017-11-23T17:34:57.423Z,7.90
2017-11-23T17:37:25.841Z,7.90
2017-11-23T17:39:54.009Z,7.90
2017-11-23T17:42:26.770Z,7.90
2017-11-23T17:44:58.883Z,7.90
2017-11-23T17:47:28.373Z,7.80
2017-11-23T17:49:56.703Z,7.70
2017-11-23T17:52:25.008Z,7.60
2017-11-23T17:54:53.177Z,7.60
2017-11-23T17:57:21.365Z,7.60
2017-11-23T17:59:49.523Z,7.60
2017-11-23T18:02:18.708Z,7.70
2017-11-23T18:04:47.195Z,7.70
2017-11-23T18:07:15.363Z,7.70
2017-11-23T18:09:43.518Z,7.60
2017-11-23T18:12:11.773Z,7.70
2017-11-23T18:14:39.944Z,7.70
2017-11-23T18:17:08.090Z,7.70
2017-11-23T18:19:36.270Z,7.80
2017-11-23T18:22:05.312Z,7.80
2017-11-23T18:24:33.500Z,7.80
2017-11-23T18:27:01.676Z,7.80
2017-11-23T18:29:29.853Z,7.90
2017-11-23T18:31:58.815Z,7.80
2017-11-23T18:34:26.974Z,7.70
2017-11-23T18:36:55.146Z,7.80
2017-11-23T18:39:23.317Z,7.70
2017-11-23T18:41:52.315Z,7.50
2017-11-23T18:44:20.484Z,7.40
2017-11-23T18:46:49.417Z,7.20
2017-11-23T18:49:17.604Z,7.20
2017-11-23T18:51:45.787Z,7.10
2017-11-23T18:54:15.621Z,7.10
2017-11-23T18:56:44.636Z,7.00
2017-11-23T18:59:12.805Z,7.10
2017-11-23T19:01:41.716Z,6.90
2017-11-23T19:04:09.971Z,6.90
2017-11-23T19:06:38.111Z,6.80
2017-11-23T19:09:06.294Z,6.80
2017-11-23T19:11:34.582Z,6.70
2017-11-23T19:14:03.553Z,6.70
2017-11-23T19:16:31.709Z,6.60
2017-11-23T19:19:01.008Z,6.70
2017-11-23T19:21:29.885Z,6.60
2017-11-23T19:23:58.026Z,6.60
2017-11-23T19:26:26.191Z,6.50
2017-11-23T19:28:54.343Z,6.40
2017-11-23T19:31:22.500Z,6.30
2017-11-23T19:33:50.664Z,6.30
2017-11-23T19:36:18.812Z,6.20
2017-11-23T19:38:47.733Z,6.20
2017-11-23T19:41:15.940Z,6.20
2017-11-23T19:43:44.531Z,6.20
2017-11-23T19:46:12.700Z,6.10
2017-11-23T19:48:41.841Z,6.10
2017-11-23T19:51:10.827Z,6.10
2017-11-23T19:53:39.090Z,6.00
2017-11-23T19:56:07.250Z,6.00
2017-11-23T19:58:35.394Z,6.10
2017-11-23T20:01:03.539Z,6.00
2017-11-23T20:03:31.787Z,5.90
2017-11-23T20:06:01.514Z,5.90
2017-11-23T20:08:29.665Z,5.90
2017-11-23T20:10:58.843Z,5.80
2017-11-23T20:13:27.149Z,5.80
2017-11-23T20:15:55.293Z,5.90
2017-11-23T20:18:23.452Z,5.80
2017-11-23T20:20:51.637Z,5.80
2017-11-23T20:23:23.753Z,5.60
2017-11-23T20:25:52.011Z,5.60
2017-11-23T20:28:20.168Z,5.60
2017-11-23T20:30:49.844Z,5.50
2017-11-23T20:33:18.047Z,5.40
2017-11-23T20:35:48.046Z,5.40
2017-11-23T20:38:16.216Z,5.40
2017-11-23T20:40:44.435Z,5.50
2017-11-23T20:43:12.601Z,5.60
2017-11-23T20:45:40.748Z,5.50
2017-11-23T20:48:08.913Z,5.60
2017-11-23T20:50:37.072Z,5.60
2017-11-23T20:53:05.326Z,5.60
2017-11-23T20:55:34.197Z,5.70
2017-11-23T20:58:02.349Z,5.70
2017-11-23T21:00:31.367Z,5.60
2017-11-23T21:02:59.647Z,5.60
2017-11-23T21:05:28.914Z,5.60
2017-11-23T21:07:57.086Z,5.80
2017-11-23T21:10:25.800Z,5.80
2017-11-23T21:12:54.793Z,5.70
2017-11-23T21:15:24.019Z,5.80
2017-11-23T21:17:52.168Z,5.70
2017-11-23T21:20:20.319Z,5.60
2017-11-23T21:22:50.384Z,5.50
2017-11-23T21:25:18.529Z,5.50
2017-11-23T21:27:46.694Z,5.50
2017-11-23T21:30:14.852Z,5.40
2017-11-23T21:32:43.058Z,5.50
2017-11-23T21:35:12.497Z,5.40
2017-11-23T21:37:40.735Z,5.50
2017-11-23T21:40:08.889Z,5.50
2017-11-23T21:42:37.193Z,5.30
2017-11-23T21:45:05.339Z,5.30
2017-11-23T21:47:34.245Z,5.30
2017-11-23T21:50:02.393Z,5.30
2017-11-23T21:52:35.062Z,5.20
2017-11-23T21:55:03.254Z,5.20
2017-11-23T21:57:31.424Z,5.10
2017-11-23T21:59:59.643Z,5.20
2017-11-23T22:02:29.738Z,5.20
2017-11-23T22:04:57.892Z,5.20
2017-11-23T22:07:26.888Z,5.10
2017-11-23T22:09:55.035Z,5.10
2017-11-23T22:12:24.071Z,5.10
2017-11-23T22:14:53.060Z,5.10
2017-11-23T22:17:22.009Z,5.10
2017-11-23T22:19:50.194Z,5.10
2017-11-23T22:22:18.503Z,5.20
2017-11-23T22:24:48.387Z,5.20
2017-11-23T22:27:16.537Z,5.20
2017-11-23T22:29:44.690Z,5.40
2017-11-23T22:32:14.377Z,5.40
2017-11-23T22:34:42.558Z,5.50
2017-11-23T22:37:11.482Z,5.80
2017-11-23T22:39:39.749Z,5.80
2017-11-23T22:42:08.719Z,6.00
2017-11-23T22:44:36.886Z,6.00
2017-11-23T22:47:06.518Z,6.00
2017-11-23T22:49:34.857Z,6.00
2017-11-23T22:52:03.063Z,6.10
2017-11-23T22:54:32.671Z,6.30
2017-11-23T22:57:00.852Z,6.30
2017-11-23T22:59:29.035Z,6.40
2017-11-23T23:01:57.177Z,6.40
2017-11-23T23:04:25.376Z,6.50
2017-11-23T23:06:53.527Z,6.60
2017-11-23T23:09:21.847Z,6.70
2017-11-23T23:11:50.746Z,6.80
2017-11-23T23:14:19.035Z,6.80
2017-11-23T23:16:47.474Z,6.90
2017-11-23T23:19:16.200Z,6.90
2017-11-23T23:21:44.375Z,7.00
2017-11-23T23:24:12.522Z,7.10
2017-11-23T23:26:40.687Z,7.20
2017-11-23T23:29:08.913Z,7.30
2017-11-23T23:31:37.669Z,7.40
2017-11-23T23:34:05.856Z,7.50
2017-11-23T23:36:34.023Z,7.50
2017-11-23T23:39:02.235Z,7.50
2017-11-23T23:41:31.229Z,7.40
2017-11-23T23:44:00.455Z,7.40
2017-11-23T23:46:28.700Z,7.40
2017-11-23T23:48:57.755Z,7.40
2017-11-23T23:51:25.951Z,7.40
2017-11-23T23:53:54.100Z,7.50
2017-11-23T23:56:22.306Z,7.50
2017-11-23T23:58:51.083Z,7.30
